createdAt,value
2018-07-28T00:00:22.470Z,48.62
2018-07-28T00:01:26.133Z,48.63
2018-07-28T00:02:29.580Z,48.63
2018-07-28T00:03:33.033Z,48.94
2018-07-28T00:04:36.434Z,48.79
2018-07-28T00:05:39.870Z,49.06
2018-07-28T00:06:43.253Z,48.99
2018-07-28T00:07:46.672Z,48.97
2018-07-28T00:08:50.135Z,48.91
2018-07-28T00:09:53.758Z,48.67
2018-07-28T00:10:57.177Z,48.36
2018-07-28T00:12:00.654Z,48.40
2018-07-28T00:13:04.050Z,49.17
2018-07-28T00:14:07.964Z,48.64
2018-07-28T00:15:12.494Z,48.52
2018-07-28T00:16:15.900Z,49.04
2018-07-28T00:17:19.368Z,48.77
2018-07-28T00:18:22.783Z,48.46
2018-07-28T00:19:26.200Z,49.00
2018-07-28T00:20:29.628Z,48.49
2018-07-28T00:21:33.204Z,49.10
2018-07-28T00:22:36.603Z,48.46
2018-07-28T00:23:39.987Z,48.51
2018-07-28T00:24:43.436Z,48.73
2018-07-28T00:26:18.935Z,48.43
2018-07-28T00:27:22.336Z,48.85
2018-07-28T00:28:25.711Z,49.07
2018-07-28T00:29:29.113Z,48.62
2018-07-28T00:30:32.528Z,48.51
2018-07-28T00:31:35.925Z,48.96
2018-07-28T00:32:39.341Z,48.42
2018-07-28T00:33:42.701Z,48.53
2018-07-28T00:34:46.111Z,48.39
2018-07-28T00:35:49.550Z,48.41
2018-07-28T00:36:52.936Z,48.85
2018-07-28T00:37:56.371Z,48.81
2018-07-28T00:38:59.749Z,48.52
2018-07-28T00:40:03.245Z,48.79
2018-07-28T00:41:06.771Z,48.40
2018-07-28T00:42:10.163Z,48.61
2018-07-28T00:43:13.534Z,49.00
2018-07-28T00:44:16.914Z,48.70
2018-07-28T00:45:20.381Z,49.01
2018-07-28T00:46:23.774Z,48.39
2018-07-28T00:47:27.172Z,48.58
2018-07-28T00:48:30.554Z,48.63
2018-07-28T00:49:33.954Z,48.98
2018-07-28T00:50:37.386Z,48.99
2018-07-28T00:51:40.794Z,49.06
2018-07-28T00:52:44.211Z,48.78
2018-07-28T00:53:47.608Z,48.90
2018-07-28T00:54:50.997Z,48.63
2018-07-28T00:55:54.393Z,49.26
2018-07-28T00:56:57.816Z,49.11
2018-07-28T00:58:01.254Z,49.35
2018-07-28T00:59:04.749Z,49.67
2018-07-28T01:00:09.266Z,49.47
2018-07-28T01:01:12.695Z,49.70
2018-07-28T01:02:16.082Z,49.86
2018-07-28T01:03:19.480Z,49.91
2018-07-28T01:04:22.867Z,49.14
2018-07-28T01:05:26.366Z,49.33
2018-07-28T01:06:29.782Z,49.98
2018-07-28T01:07:33.225Z,49.52
2018-07-28T01:08:36.632Z,49.90
2018-07-28T01:09:40.032Z,49.53
2018-07-28T01:10:43.476Z,50.06
2018-07-28T01:11:46.962Z,49.98
2018-07-28T01:12:50.361Z,49.49
2018-07-28T01:13:53.806Z,49.98
2018-07-28T01:14:57.465Z,49.50
2018-07-28T01:16:00.877Z,49.75
2018-07-28T01:17:04.291Z,50.16
2018-07-28T01:18:07.732Z,50.05
2018-07-28T01:19:11.176Z,50.62
2018-07-28T01:20:14.590Z,50.52
2018-07-28T01:21:18.051Z,50.45
2018-07-28T01:22:21.674Z,50.59
2018-07-28T01:23:25.083Z,50.35
2018-07-28T01:24:28.524Z,50.37
2018-07-28T01:25:31.902Z,49.99
2018-07-28T01:26:35.541Z,49.91
2018-07-28T01:27:39.382Z,50.36
2018-07-28T01:28:42.841Z,49.82
2018-07-28T01:29:46.229Z,50.32
2018-07-28T01:30:49.653Z,49.76
2018-07-28T01:31:53.038Z,49.86
2018-07-28T01:32:57.096Z,50.49
2018-07-28T01:34:00.492Z,50.23
2018-07-28T01:35:04.467Z,50.18
2018-07-28T01:36:07.924Z,50.27
2018-07-28T01:37:11.308Z,50.02
2018-07-28T01:38:14.774Z,50.13
2018-07-28T01:39:18.172Z,49.95
2018-07-28T01:40:21.626Z,50.53
2018-07-28T01:41:25.010Z,49.87
2018-07-28T01:42:28.412Z,49.95
2018-07-28T01:43:31.829Z,50.02
2018-07-28T01:44:35.203Z,50.47
2018-07-28T01:45:38.827Z,49.97
2018-07-28T01:46:42.232Z,50.00
2018-07-28T01:47:45.636Z,50.54
2018-07-28T01:48:49.074Z,50.66
2018-07-28T01:49:52.499Z,50.58
2018-07-28T01:50:55.914Z,50.27
2018-07-28T01:51:59.347Z,50.85
2018-07-28T01:53:02.768Z,50.35
2018-07-28T01:54:06.206Z,50.81
2018-07-28T01:55:09.645Z,51.02
2018-07-28T01:56:13.066Z,50.19
2018-07-28T01:57:16.497Z,50.24
2018-07-28T01:58:19.895Z,50.14
2018-07-28T01:59:23.330Z,50.42
2018-07-28T02:00:26.768Z,50.78
2018-07-28T02:01:30.395Z,50.63
2018-07-28T02:02:33.839Z,50.12
2018-07-28T02:03:37.255Z,50.35
2018-07-28T02:04:40.676Z,50.53
2018-07-28T02:05:44.062Z,50.03
2018-07-28T02:06:47.478Z,50.29
2018-07-28T02:07:50.876Z,50.18
2018-07-28T02:08:54.454Z,50.18
2018-07-28T02:09:57.919Z,50.08
2018-07-28T02:11:01.323Z,50.11
2018-07-28T02:12:04.781Z,50.69
2018-07-28T02:13:08.239Z,50.77
2018-07-28T02:14:11.674Z,50.50
2018-07-28T02:15:15.172Z,50.36
2018-07-28T02:16:18.669Z,50.73
2018-07-28T02:17:22.065Z,51.07
2018-07-28T02:18:25.464Z,50.63
2018-07-28T02:19:28.868Z,50.13
2018-07-28T02:20:32.297Z,50.69
2018-07-28T02:21:35.780Z,50.72
2018-07-28T02:22:39.172Z,50.16
2018-07-28T02:23:42.600Z,50.21
2018-07-28T02:24:46.015Z,50.62
2018-07-28T02:25:49.439Z,50.21
2018-07-28T02:26:52.818Z,50.63
2018-07-28T02:27:56.233Z,50.11
2018-07-28T02:28:59.681Z,50.45
2018-07-28T02:30:03.361Z,50.24
2018-07-28T02:31:06.782Z,50.62
2018-07-28T02:32:10.300Z,50.79
2018-07-28T02:33:13.802Z,50.67
2018-07-28T02:34:17.218Z,50.69
2018-07-28T02:35:20.609Z,50.54
2018-07-28T02:36:24.048Z,50.09
2018-07-28T02:37:27.462Z,49.97
2018-07-28T02:38:30.854Z,49.98
2018-07-28T02:39:34.249Z,49.95
2018-07-28T02:40:37.692Z,49.95
2018-07-28T02:41:41.879Z,49.69
2018-07-28T02:42:45.282Z,47.83
2018-07-28T02:43:48.697Z,46.69
2018-07-28T02:44:52.106Z,45.89
2018-07-28T02:45:55.512Z,45.41
2018-07-28T02:46:59.614Z,45.24
2018-07-28T02:48:03.028Z,45.18
2018-07-28T02:49:07.222Z,44.24
2018-07-28T02:50:10.627Z,44.58
2018-07-28T02:51:14.038Z,44.24
2018-07-28T02:52:17.644Z,42.61
2018-07-28T02:53:21.092Z,43.08
2018-07-28T02:54:24.507Z,42.29
2018-07-28T02:55:27.893Z,41.70
2018-07-28T02:56:31.349Z,41.82
2018-07-28T02:57:34.800Z,41.92
2018-07-28T02:58:38.214Z,42.23
2018-07-28T02:59:41.631Z,42.59
2018-07-28T03:00:45.089Z,42.67
2018-07-28T03:01:48.543Z,42.55
2018-07-28T03:02:51.985Z,43.04
2018-07-28T03:03:55.374Z,42.43
2018-07-28T03:04:58.762Z,41.77
2018-07-28T03:06:02.183Z,42.58
2018-07-28T03:07:05.898Z,41.96
2018-07-28T03:08:09.763Z,42.45
2018-07-28T03:09:13.804Z,43.61
2018-07-28T03:10:17.235Z,42.88
2018-07-28T03:11:20.621Z,43.26
2018-07-28T03:12:24.023Z,42.70
2018-07-28T03:13:27.448Z,42.94
2018-07-28T03:14:30.883Z,43.09
2018-07-28T03:15:36.247Z,42.41
2018-07-28T03:16:39.666Z,42.89
2018-07-28T03:17:43.064Z,42.32
2018-07-28T03:18:46.508Z,42.02
2018-07-28T03:19:49.965Z,42.55
2018-07-28T03:20:53.404Z,42.10
2018-07-28T03:21:56.795Z,41.89
2018-07-28T03:23:00.922Z,42.07
2018-07-28T03:24:04.382Z,42.04
2018-07-28T03:25:07.846Z,42.08
2018-07-28T03:26:11.311Z,42.47
2018-07-28T03:27:14.738Z,42.45
2018-07-28T03:28:18.236Z,41.95
2018-07-28T03:29:21.625Z,42.39
2018-07-28T03:30:25.296Z,42.67
2018-07-28T03:31:28.727Z,42.48
2018-07-28T03:32:32.098Z,42.69
2018-07-28T03:33:35.512Z,42.14
2018-07-28T03:34:38.939Z,42.61
2018-07-28T03:35:42.363Z,42.23
2018-07-28T03:36:45.745Z,42.24
2018-07-28T03:37:49.147Z,42.30
2018-07-28T03:38:52.546Z,42.32
2018-07-28T03:39:55.966Z,42.46
2018-07-28T03:40:59.380Z,43.21
2018-07-28T03:42:02.800Z,42.71
2018-07-28T03:43:06.428Z,42.16
2018-07-28T03:44:09.841Z,42.76
2018-07-28T03:45:13.292Z,42.78
2018-07-28T03:46:16.673Z,43.10
2018-07-28T03:47:20.087Z,42.61
2018-07-28T03:48:23.492Z,43.25
2018-07-28T03:49:26.900Z,42.50
2018-07-28T03:50:30.316Z,42.72
2018-07-28T03:51:33.720Z,42.67
2018-07-28T03:52:37.186Z,42.90
2018-07-28T03:53:40.857Z,43.60
2018-07-28T03:54:44.238Z,42.98
2018-07-28T03:55:47.656Z,43.00
2018-07-28T03:56:51.081Z,43.64
2018-07-28T03:57:54.494Z,43.03
2018-07-28T03:58:57.870Z,43.75
2018-07-28T04:00:01.243Z,43.85
2018-07-28T04:01:04.730Z,43.91
2018-07-28T04:02:08.180Z,43.68
2018-07-28T04:03:11.599Z,43.69
2018-07-28T04:04:15.059Z,44.05
2018-07-28T04:05:18.476Z,43.81
2018-07-28T04:06:21.909Z,44.09
2018-07-28T04:07:25.329Z,43.81
2018-07-28T04:08:28.736Z,44.13
2018-07-28T04:09:32.156Z,44.21
2018-07-28T04:10:35.584Z,43.65
2018-07-28T04:11:39.166Z,44.35
2018-07-28T04:12:42.600Z,43.83
2018-07-28T04:13:46.000Z,43.77
2018-07-28T04:14:49.397Z,43.98
2018-07-28T04:15:52.800Z,44.21
2018-07-28T04:16:56.226Z,43.86
2018-07-28T04:17:59.617Z,43.76
2018-07-28T04:19:03.024Z,43.84
2018-07-28T04:20:06.445Z,43.87
2018-07-28T04:21:09.887Z,44.03
2018-07-28T04:22:13.342Z,44.09
2018-07-28T04:23:16.756Z,44.23
2018-07-28T04:24:20.180Z,44.51
2018-07-28T04:25:23.980Z,44.40
2018-07-28T04:26:27.407Z,44.44
2018-07-28T04:27:30.936Z,44.44
2018-07-28T04:28:34.358Z,44.29
2018-07-28T04:29:37.829Z,44.43
2018-07-28T04:30:41.192Z,44.64
2018-07-28T04:31:44.585Z,44.66
2018-07-28T04:32:48.042Z,44.01
2018-07-28T04:33:51.425Z,44.04
2018-07-28T04:34:54.859Z,44.37
2018-07-28T04:35:58.241Z,44.00
2018-07-28T04:37:01.710Z,44.15
2018-07-28T04:38:05.105Z,44.80
2018-07-28T04:39:10.457Z,44.48
2018-07-28T04:40:13.894Z,44.63
2018-07-28T04:41:17.371Z,44.22
2018-07-28T04:42:20.815Z,44.28
2018-07-28T04:43:24.274Z,44.85
2018-07-28T04:44:27.715Z,44.45
2018-07-28T04:45:31.089Z,44.46
2018-07-28T04:46:34.720Z,44.88
2018-07-28T04:47:38.110Z,44.21
2018-07-28T04:48:41.525Z,44.80
2018-07-28T04:49:44.951Z,44.37
2018-07-28T04:50:48.380Z,44.87
2018-07-28T04:51:51.764Z,44.81
2018-07-28T04:52:55.173Z,44.93
2018-07-28T04:53:58.560Z,44.55
2018-07-28T04:55:02.273Z,44.33
2018-07-28T04:56:06.468Z,44.92
2018-07-28T04:57:09.871Z,45.03
2018-07-28T04:58:13.281Z,45.80
2018-07-28T04:59:16.858Z,45.39
2018-07-28T05:00:20.282Z,45.05
2018-07-28T05:01:23.676Z,45.15
2018-07-28T05:02:28.058Z,45.13
2018-07-28T05:03:31.503Z,45.25
2018-07-28T05:04:34.897Z,45.15
2018-07-28T05:05:38.306Z,45.34
2018-07-28T05:06:41.713Z,45.43
2018-07-28T05:07:45.159Z,45.26
2018-07-28T05:08:48.580Z,45.66
2018-07-28T05:09:51.996Z,45.67
2018-07-28T05:10:55.378Z,45.29
2018-07-28T05:11:58.798Z,45.61
2018-07-28T05:13:02.223Z,46.09
2018-07-28T05:14:05.636Z,45.94
2018-07-28T05:15:09.086Z,45.54
2018-07-28T05:16:12.524Z,45.90
2018-07-28T05:17:15.955Z,46.06
2018-07-28T05:18:19.336Z,46.17
2018-07-28T05:19:22.726Z,46.11
2018-07-28T05:20:26.155Z,45.76
2018-07-28T05:21:29.612Z,45.64
2018-07-28T05:22:33.001Z,45.98
2018-07-28T05:23:36.395Z,46.07
2018-07-28T05:24:39.811Z,46.08
2018-07-28T05:25:43.177Z,45.60
2018-07-28T05:26:46.566Z,46.24
2018-07-28T05:27:49.991Z,45.58
2018-07-28T05:28:53.386Z,46.31
2018-07-28T05:29:56.768Z,45.83
2018-07-28T05:31:00.234Z,45.50
2018-07-28T05:32:03.713Z,46.10
2018-07-28T05:33:07.140Z,45.49
2018-07-28T05:34:10.554Z,45.81
2018-07-28T05:35:13.968Z,45.43
2018-07-28T05:36:17.360Z,45.84
2018-07-28T05:37:20.749Z,45.56
2018-07-28T05:38:24.151Z,45.63
2018-07-28T05:39:27.632Z,45.50
2018-07-28T05:40:31.043Z,46.24
2018-07-28T05:41:34.440Z,45.81
2018-07-28T05:42:37.888Z,45.85
2018-07-28T05:43:41.281Z,45.61
2018-07-28T05:44:44.676Z,46.08
2018-07-28T05:45:48.149Z,45.98
2018-07-28T05:46:51.587Z,45.71
2018-07-28T05:47:54.978Z,45.69
2018-07-28T05:48:58.394Z,45.66
2018-07-28T05:50:01.841Z,45.51
2018-07-28T05:51:05.276Z,45.50
2018-07-28T05:52:08.730Z,45.81
2018-07-28T05:53:12.114Z,45.78
2018-07-28T05:54:15.510Z,46.12
2018-07-28T05:55:18.905Z,45.96
2018-07-28T05:56:22.339Z,45.85
2018-07-28T05:57:25.879Z,45.95
2018-07-28T05:58:29.271Z,46.56
2018-07-28T05:59:32.805Z,46.13
2018-07-28T06:00:36.247Z,46.99
2018-07-28T06:01:39.680Z,47.17
2018-07-28T06:02:43.143Z,47.32
2018-07-28T06:03:46.497Z,47.61
2018-07-28T06:04:49.894Z,47.62
2018-07-28T06:05:53.310Z,47.82
2018-07-28T06:06:56.754Z,47.97
2018-07-28T06:08:00.210Z,49.23
2018-07-28T06:09:05.057Z,50.18
2018-07-28T06:10:08.522Z,50.66
2018-07-28T06:11:12.161Z,50.43
2018-07-28T06:12:15.580Z,51.50
2018-07-28T06:13:18.977Z,51.61
2018-07-28T06:14:23.130Z,51.86
2018-07-28T06:15:26.549Z,52.22
2018-07-28T06:16:30.007Z,51.92
2018-07-28T06:17:33.396Z,52.96
2018-07-28T06:18:37.244Z,53.03
2018-07-28T06:19:41.022Z,53.13
2018-07-28T06:20:44.768Z,53.50
2018-07-28T06:21:48.445Z,52.94
2018-07-28T06:22:51.841Z,53.49
2018-07-28T06:23:55.258Z,53.08
2018-07-28T06:24:58.672Z,52.63
2018-07-28T06:26:02.108Z,52.71
2018-07-28T06:27:05.557Z,53.77
2018-07-28T06:28:09.501Z,53.65
2018-07-28T06:29:12.921Z,53.58
2018-07-28T06:30:16.309Z,52.94
2018-07-28T06:31:19.734Z,53.02
2018-07-28T06:32:23.179Z,52.95
2018-07-28T06:33:26.608Z,53.21
2018-07-28T06:34:30.010Z,53.79
2018-07-28T06:35:33.440Z,54.18
2018-07-28T06:36:36.894Z,54.39
2018-07-28T06:37:40.292Z,54.17
2018-07-28T06:38:43.860Z,54.52
2018-07-28T06:39:47.261Z,54.84
2018-07-28T06:40:50.709Z,54.78
2018-07-28T06:41:54.117Z,54.23
2018-07-28T06:42:57.572Z,54.07
2018-07-28T06:44:01.058Z,54.04
2018-07-28T06:45:04.788Z,54.86
2018-07-28T06:46:08.313Z,54.87
2018-07-28T06:47:11.805Z,54.26
2018-07-28T06:48:15.209Z,54.48
2018-07-28T06:49:18.594Z,54.19
2018-07-28T06:50:21.978Z,54.54
2018-07-28T06:51:25.388Z,54.61
2018-07-28T06:52:28.828Z,54.53
2018-07-28T06:53:32.255Z,55.00
2018-07-28T06:54:35.690Z,55.05
2018-07-28T06:55:39.141Z,54.80
2018-07-28T06:56:42.613Z,54.21
2018-07-28T06:57:46.016Z,54.90
2018-07-28T06:58:49.451Z,54.57
2018-07-28T06:59:53.114Z,54.87
2018-07-28T07:00:56.513Z,55.67
2018-07-28T07:01:59.912Z,55.38
2018-07-28T07:03:03.389Z,56.10
2018-07-28T07:04:06.843Z,56.17
2018-07-28T07:05:10.311Z,56.72
2018-07-28T07:06:13.730Z,57.17
2018-07-28T07:07:17.093Z,57.27
2018-07-28T07:08:20.479Z,58.05
2018-07-28T07:09:23.846Z,57.72
2018-07-28T07:10:27.264Z,57.52
2018-07-28T07:11:30.691Z,57.74
2018-07-28T07:12:34.071Z,57.92
2018-07-28T07:13:37.474Z,57.88
2018-07-28T07:14:40.933Z,58.18
2018-07-28T07:15:44.400Z,57.43
2018-07-28T07:16:47.772Z,58.05
2018-07-28T07:17:51.172Z,58.50
2018-07-28T07:18:54.596Z,58.68
2018-07-28T07:19:58.009Z,58.90
2018-07-28T07:21:01.424Z,59.27
2018-07-28T07:22:04.860Z,58.99
2018-07-28T07:23:08.265Z,59.25
2018-07-28T07:24:11.696Z,59.56
2018-07-28T07:25:15.269Z,59.47
2018-07-28T07:26:18.665Z,59.76
2018-07-28T07:27:22.177Z,58.73
2018-07-28T07:28:25.596Z,58.93
2018-07-28T07:29:29.032Z,58.57
2018-07-28T07:30:32.628Z,59.17
2018-07-28T07:31:36.009Z,58.51
2018-07-28T07:32:39.433Z,58.27
2018-07-28T07:33:42.865Z,58.65
2018-07-28T07:34:46.331Z,58.29
2018-07-28T07:35:49.792Z,57.88
2018-07-28T07:36:53.194Z,57.64
2018-07-28T07:37:56.604Z,57.29
2018-07-28T07:39:00.051Z,57.26
2018-07-28T07:40:03.586Z,57.18
2018-07-28T07:41:07.033Z,57.05
2018-07-28T07:42:10.471Z,57.42
2018-07-28T07:43:13.880Z,56.93
2018-07-28T07:44:17.312Z,56.93
2018-07-28T07:45:20.748Z,57.44
2018-07-28T07:46:24.195Z,56.55
2018-07-28T07:47:27.669Z,56.38
2018-07-28T07:48:31.005Z,56.21
2018-07-28T07:49:34.400Z,56.01
2018-07-28T07:50:37.794Z,55.67
2018-07-28T07:51:41.212Z,55.94
2018-07-28T07:52:44.828Z,55.95
2018-07-28T07:53:48.287Z,55.94
2018-07-28T07:54:51.684Z,55.98
2018-07-28T07:55:55.087Z,54.91
2018-07-28T07:56:58.517Z,55.11
2018-07-28T07:58:02.084Z,54.64
2018-07-28T07:59:05.626Z,55.40
2018-07-28T08:00:10.011Z,55.12
2018-07-28T08:01:13.496Z,54.29
2018-07-28T08:02:16.912Z,54.38
2018-07-28T08:03:20.357Z,54.73
2018-07-28T08:04:24.155Z,55.21
2018-07-28T08:05:27.876Z,54.88
2018-07-28T08:06:31.394Z,54.37
2018-07-28T08:07:34.824Z,53.87
2018-07-28T08:08:38.840Z,53.80
2018-07-28T08:09:42.248Z,54.52
2018-07-28T08:10:45.665Z,54.42
2018-07-28T08:11:49.060Z,54.50
2018-07-28T08:12:52.447Z,54.30
2018-07-28T08:13:55.869Z,54.07
2018-07-28T08:14:59.580Z,53.59
2018-07-28T08:16:03.055Z,53.59
2018-07-28T08:17:06.516Z,53.69
2018-07-28T08:18:09.936Z,52.94
2018-07-28T08:19:13.338Z,52.68
2018-07-28T08:20:16.838Z,53.06
2018-07-28T08:21:20.252Z,52.56
2018-07-28T08:22:23.653Z,52.93
2018-07-28T08:23:27.096Z,52.62
2018-07-28T08:24:30.512Z,52.99
2018-07-28T08:25:33.880Z,52.64
2018-07-28T08:26:37.366Z,53.05
2018-07-28T08:27:40.772Z,52.35
2018-07-28T08:28:44.208Z,53.39
2018-07-28T08:29:47.600Z,52.83
2018-07-28T08:30:51.000Z,53.01
2018-07-28T08:31:54.400Z,52.95
2018-07-28T08:32:57.829Z,53.33
2018-07-28T08:34:01.264Z,53.07
2018-07-28T08:35:05.951Z,52.71
2018-07-28T08:36:09.365Z,52.73
2018-07-28T08:37:12.818Z,53.01
2018-07-28T08:38:16.244Z,53.05
2018-07-28T08:39:19.723Z,53.07
2018-07-28T08:40:25.198Z,53.37
2018-07-28T08:41:28.588Z,53.01
2018-07-28T08:42:31.989Z,53.48
2018-07-28T08:43:35.407Z,52.58
2018-07-28T08:44:38.896Z,52.62
2018-07-28T08:45:42.282Z,52.63
2018-07-28T08:46:45.680Z,52.54
2018-07-28T08:47:49.049Z,52.66
2018-07-28T08:48:52.508Z,53.06
2018-07-28T08:49:55.891Z,52.78
2018-07-28T08:50:59.262Z,53.26
2018-07-28T08:52:02.696Z,52.85
2018-07-28T08:53:06.488Z,52.73
2018-07-28T08:54:09.925Z,52.86
2018-07-28T08:55:13.355Z,52.60
2018-07-28T08:56:16.758Z,52.31
2018-07-28T08:57:20.156Z,53.02
2018-07-28T08:58:23.568Z,52.90
2018-07-28T08:59:26.972Z,52.98
2018-07-28T09:00:30.456Z,52.15
2018-07-28T09:01:33.857Z,52.38
2018-07-28T09:02:37.334Z,52.20
2018-07-28T09:03:40.790Z,52.01
2018-07-28T09:04:44.207Z,52.81
2018-07-28T09:05:47.641Z,52.04
2018-07-28T09:06:51.050Z,52.66
2018-07-28T09:07:54.474Z,51.99
2018-07-28T09:08:57.846Z,51.68
2018-07-28T09:10:01.645Z,51.99
2018-07-28T09:11:05.097Z,52.36
2018-07-28T09:12:08.537Z,51.96
2018-07-28T09:13:11.969Z,51.91
2018-07-28T09:14:15.377Z,52.05
2018-07-28T09:15:18.776Z,52.40
2018-07-28T09:16:22.243Z,52.55
2018-07-28T09:17:25.630Z,52.03
2018-07-28T09:18:29.021Z,52.28
2018-07-28T09:19:32.438Z,52.42
2018-07-28T09:20:35.864Z,52.26
2018-07-28T09:21:39.285Z,51.87
2018-07-28T09:22:42.738Z,51.76
2018-07-28T09:23:46.152Z,52.37
2018-07-28T09:24:49.534Z,52.38
2018-07-28T09:25:52.926Z,51.59
2018-07-28T09:26:56.343Z,52.17
2018-07-28T09:27:59.722Z,52.61
2018-07-28T09:29:03.129Z,52.55
2018-07-28T09:30:07.590Z,52.26
2018-07-28T09:31:11.019Z,52.55
2018-07-28T09:32:14.483Z,53.29
2018-07-28T09:33:18.096Z,53.13
2018-07-28T09:34:21.506Z,53.01
2018-07-28T09:35:24.890Z,52.71
2018-07-28T09:36:28.288Z,53.38
2018-07-28T09:37:31.890Z,53.27
2018-07-28T09:38:35.283Z,52.65
2018-07-28T09:39:38.680Z,52.56
2018-07-28T09:40:42.160Z,52.81
2018-07-28T09:41:45.526Z,52.47
2018-07-28T09:42:48.958Z,52.23
2018-07-28T09:43:52.358Z,52.14
2018-07-28T09:44:55.750Z,52.05
2018-07-28T09:45:59.156Z,52.45
2018-07-28T09:47:02.579Z,51.76
2018-07-28T09:48:06.503Z,51.97
2018-07-28T09:49:09.908Z,51.66
2018-07-28T09:50:13.291Z,51.76
2018-07-28T09:51:16.735Z,52.10
2018-07-28T09:52:20.118Z,52.13
2018-07-28T09:53:23.544Z,52.01
2018-07-28T09:54:27.335Z,52.09
2018-07-28T09:55:30.758Z,52.14
2018-07-28T09:56:34.148Z,51.89
2018-07-28T09:57:37.547Z,51.77
2018-07-28T09:58:40.968Z,51.43
2018-07-28T09:59:44.376Z,51.30
2018-07-28T10:00:53.155Z,51.22
2018-07-28T10:01:56.601Z,51.60
2018-07-28T10:03:00.001Z,51.64
2018-07-28T10:04:03.492Z,51.34
2018-07-28T10:05:06.884Z,51.69
2018-07-28T10:06:10.313Z,51.68
2018-07-28T10:07:13.764Z,51.39
2018-07-28T10:08:17.151Z,51.09
2018-07-28T10:09:20.541Z,51.08
2018-07-28T10:10:23.952Z,50.91
2018-07-28T10:11:27.358Z,51.12
2018-07-28T10:12:30.784Z,51.40
2018-07-28T10:13:34.224Z,51.42
2018-07-28T10:14:37.617Z,50.28
2018-07-28T10:15:41.253Z,50.50
2018-07-28T10:16:44.659Z,51.14
2018-07-28T10:17:48.061Z,50.85
2018-07-28T10:18:51.461Z,50.32
2018-07-28T10:19:54.880Z,50.86
2018-07-28T10:20:58.378Z,50.38
2018-07-28T10:22:01.818Z,50.75
2018-07-28T10:23:05.684Z,50.58
2018-07-28T10:24:09.116Z,50.43
2018-07-28T10:25:12.503Z,50.21
2018-07-28T10:26:15.950Z,50.05
2018-07-28T10:27:19.354Z,50.22
2018-07-28T10:28:22.762Z,49.92
2018-07-28T10:29:26.152Z,50.55
2018-07-28T10:30:29.650Z,50.11
2018-07-28T10:31:33.052Z,49.75
2018-07-28T10:32:37.154Z,49.63
2018-07-28T10:33:40.572Z,49.89
2018-07-28T10:34:43.972Z,49.90
2018-07-28T10:35:47.405Z,49.18
2018-07-28T10:36:50.829Z,49.16
2018-07-28T10:37:54.282Z,49.70
2018-07-28T10:38:57.680Z,49.39
2018-07-28T10:40:01.089Z,49.35
2018-07-28T10:41:04.660Z,49.75
2018-07-28T10:42:08.136Z,49.08
2018-07-28T10:43:11.554Z,49.80
2018-07-28T10:44:14.944Z,49.62
2018-07-28T10:45:18.349Z,49.52
2018-07-28T10:46:22.162Z,49.77
2018-07-28T10:47:25.562Z,50.16
2018-07-28T10:48:28.957Z,49.52
2018-07-28T10:49:32.455Z,49.05
2018-07-28T10:50:35.845Z,49.47
2018-07-28T10:51:39.270Z,49.30
2018-07-28T10:52:42.656Z,48.89
2018-07-28T10:53:46.199Z,48.88
2018-07-28T10:54:51.802Z,49.37
2018-07-28T10:55:55.189Z,48.68
2018-07-28T10:56:58.600Z,49.22
2018-07-28T10:58:01.980Z,49.20
2018-07-28T10:59:05.386Z,49.54
2018-07-28T11:00:09.290Z,49.46
2018-07-28T11:01:12.684Z,48.87
2018-07-28T11:02:16.126Z,48.85
2018-07-28T11:03:19.556Z,49.31
2018-07-28T11:04:22.953Z,49.16
2018-07-28T11:05:26.532Z,49.15
2018-07-28T11:06:29.964Z,49.26
2018-07-28T11:07:33.442Z,48.98
2018-07-28T11:08:36.838Z,49.01
2018-07-28T11:09:40.259Z,48.97
2018-07-28T11:10:43.676Z,49.61
2018-07-28T11:11:47.115Z,49.13
2018-07-28T11:12:50.540Z,48.92
2018-07-28T11:13:53.934Z,49.28
2018-07-28T11:14:57.339Z,49.24
2018-07-28T11:16:00.748Z,49.17
2018-07-28T11:17:04.223Z,49.58
2018-07-28T11:18:07.667Z,49.02
2018-07-28T11:19:11.059Z,49.01
2018-07-28T11:20:14.466Z,48.99
2018-07-28T11:21:17.868Z,49.45
2018-07-28T11:22:21.303Z,49.36
2018-07-28T11:23:35.994Z,49.60
2018-07-28T11:24:39.463Z,49.27
2018-07-28T11:25:42.862Z,49.06
2018-07-28T11:26:46.284Z,49.60
2018-07-28T11:27:49.679Z,48.99
2018-07-28T11:28:53.714Z,49.58
2018-07-28T11:29:57.125Z,48.91
2018-07-28T11:31:00.526Z,49.08
2018-07-28T11:32:15.195Z,49.17
2018-07-28T11:33:29.885Z,49.68
2018-07-28T11:34:44.640Z,48.63
2018-07-28T11:35:59.485Z,49.06
2018-07-28T11:38:17.119Z,48.89
2018-07-28T11:39:31.845Z,49.01
2018-07-28T11:40:46.576Z,49.05
2018-07-28T11:42:01.326Z,49.52
2018-07-28T11:43:16.116Z,49.08
2018-07-28T11:45:23.173Z,49.22
2018-07-28T11:46:26.597Z,49.11
2018-07-28T11:47:30.000Z,49.46
2018-07-28T11:48:33.373Z,49.34
2018-07-28T11:49:36.785Z,49.63
2018-07-28T11:50:40.172Z,49.67
2018-07-28T11:51:43.591Z,49.77
2018-07-28T11:52:46.986Z,49.24
2018-07-28T11:53:50.400Z,49.02
2018-07-28T11:54:53.841Z,49.71
2018-07-28T11:55:57.247Z,49.09
2018-07-28T11:57:00.618Z,49.12
2018-07-28T11:58:04.025Z,49.66
2018-07-28T11:59:07.457Z,49.57
2018-07-28T12:00:11.228Z,49.73
2018-07-28T12:01:14.602Z,49.54
2018-07-28T12:02:18.010Z,49.71
2018-07-28T12:03:21.451Z,49.13
2018-07-28T12:04:25.083Z,49.23
2018-07-28T12:05:28.681Z,49.13
2018-07-28T12:06:32.087Z,49.71
2018-07-28T12:07:35.593Z,49.51
2018-07-28T12:08:39.032Z,49.28
2018-07-28T12:09:42.473Z,49.19
2018-07-28T12:10:45.875Z,49.18
2018-07-28T12:11:49.405Z,49.73
2018-07-28T12:12:52.830Z,49.18
2018-07-28T12:13:56.248Z,49.65
2018-07-28T12:14:59.641Z,49.29
2018-07-28T12:16:03.062Z,49.16
2018-07-28T12:17:07.016Z,49.67
2018-07-28T12:18:10.451Z,49.84
2018-07-28T12:19:13.888Z,49.66
2018-07-28T12:20:17.269Z,48.92
2018-07-28T12:21:20.694Z,49.96
2018-07-28T12:22:24.154Z,49.75
2018-07-28T12:23:27.568Z,49.82
2018-07-28T12:24:31.002Z,49.18
2018-07-28T12:25:34.380Z,49.30
2018-07-28T12:26:37.802Z,49.80
2018-07-28T12:27:41.320Z,49.57
2018-07-28T12:28:44.744Z,48.99
2018-07-28T12:29:48.141Z,49.40
2018-07-28T12:30:51.521Z,49.74
2018-07-28T12:31:54.937Z,49.82
2018-07-28T12:32:58.427Z,49.30
2018-07-28T12:34:01.843Z,49.26
2018-07-28T12:35:05.608Z,49.18
2018-07-28T12:36:09.028Z,49.56
2018-07-28T12:37:12.441Z,49.56
2018-07-28T12:38:15.876Z,49.13
2018-07-28T12:39:19.269Z,49.19
2018-07-28T12:40:22.722Z,49.39
2018-07-28T12:41:26.129Z,49.45
2018-07-28T12:42:29.509Z,48.97
2018-07-28T12:43:32.904Z,48.70
2018-07-28T12:44:36.322Z,48.77
2018-07-28T12:45:39.730Z,48.72
2018-07-28T12:46:43.132Z,49.08
2018-07-28T12:47:46.534Z,49.13
2018-07-28T12:48:49.951Z,48.52
2018-07-28T12:49:53.380Z,48.86
2018-07-28T12:50:56.812Z,48.71
2018-07-28T12:52:00.233Z,48.85
2018-07-28T12:53:03.644Z,48.82
2018-07-28T12:54:07.072Z,49.46
2018-07-28T12:55:10.599Z,49.47
2018-07-28T12:56:14.048Z,48.80
2018-07-28T12:57:17.460Z,48.85
2018-07-28T12:58:20.834Z,49.08
2018-07-28T12:59:24.201Z,49.33
2018-07-28T13:00:27.604Z,48.95
2018-07-28T13:01:30.994Z,49.05
2018-07-28T13:02:34.424Z,48.90
2018-07-28T13:03:37.843Z,49.32
2018-07-28T13:04:41.238Z,49.45
2018-07-28T13:05:44.683Z,49.25
2018-07-28T13:06:48.100Z,49.20
2018-07-28T13:07:51.504Z,49.08
2018-07-28T13:08:54.988Z,49.58
2018-07-28T13:09:58.376Z,49.74
2018-07-28T13:11:01.821Z,49.84
2018-07-28T13:12:05.257Z,49.53
2018-07-28T13:13:08.676Z,49.27
2018-07-28T13:14:12.092Z,49.82
2018-07-28T13:15:15.500Z,50.24
2018-07-28T13:16:18.928Z,49.96
2018-07-28T13:17:22.336Z,50.20
2018-07-28T13:18:25.794Z,50.23
2018-07-28T13:19:29.487Z,50.16
2018-07-28T13:20:32.902Z,50.01
2018-07-28T13:21:36.576Z,49.63
2018-07-28T13:22:39.984Z,49.54
2018-07-28T13:23:43.394Z,49.95
2018-07-28T13:24:46.804Z,50.62
2018-07-28T13:25:50.223Z,50.21
2018-07-28T13:26:53.664Z,50.21
2018-07-28T13:27:57.064Z,50.47
2018-07-28T13:29:00.476Z,50.30
2018-07-28T13:30:03.961Z,50.18
2018-07-28T13:31:07.403Z,50.23
2018-07-28T13:32:10.877Z,50.10
2018-07-28T13:33:14.450Z,49.92
2018-07-28T13:34:17.844Z,50.38
2018-07-28T13:35:21.249Z,50.25
2018-07-28T13:36:24.655Z,50.13
2018-07-28T13:37:28.062Z,50.21
2018-07-28T13:38:31.434Z,50.18
2018-07-28T13:39:34.858Z,50.55
2018-07-28T13:40:39.532Z,50.59
2018-07-28T13:41:42.960Z,50.85